DLH410 EDDM-KJFK
Flight info
| Callsign | DLH410 |
|---|---|
| Flight time | N/A |
| Altitude | 36000 |
| Route | GIVMI6E GIVMI Y101 INBED DCT REKDI DCT LOHRE DCT BUB L608 DENUT L610 KOPUL Q60 OKSAW DCT BIBPE DCT FELCA DCT OFSOX DCT SLANY DCT OLGON DCT NEBIN/M083F370 NATB BUDAR/N0469F380 DCT ALLEX DCT PLYMM PARCH4 |
| Aircraft | A388/J-SADE2E3FGHIJ3J4J5M1RWXY/LB1D1 |
Departure
| Time | 2026-04-30 08:13 |
|---|---|
| Airport | Munich Airport (EDDM) |
Arrival
| Time | N/A |
|---|---|
| Airport | John F. Kennedy International Airport (KJFK) |
| Time | Latitude | Longitude | Altitude | Speed | Heading |
|---|---|---|---|---|---|
| 2026-04-30 07:10 | 48.35468 | 11.79728 | 1490 ft | 0 kts | 83° |
| 2026-04-30 07:56 | 48.35467 | 11.79718 | 1490 ft | 3 kts | 83° |
| 2026-04-30 07:56 | 48.35465 | 11.79683 | 1482 ft | 3 kts | 83° |
| 2026-04-30 07:57 | 48.35462 | 11.79653 | 1479 ft | 2 kts | 83° |
| 2026-04-30 07:57 | 48.35462 | 11.79619 | 1480 ft | 3 kts | 104° |
| 2026-04-30 07:57 | 48.35471 | 11.79592 | 1475 ft | 3 kts | 150° |
| 2026-04-30 07:57 | 48.35491 | 11.79584 | 1480 ft | 3 kts | 173° |
| 2026-04-30 07:58 | 48.35514 | 11.79579 | 1475 ft | 3 kts | 173° |
| 2026-04-30 07:58 | 48.35518 | 11.79579 | 1475 ft | 0 kts | 173° |
| 2026-04-30 08:02 | 48.35514 | 11.79579 | 1480 ft | 2 kts | 173° |
| 2026-04-30 08:02 | 48.35490 | 11.79584 | 1484 ft | 5 kts | 173° |
| 2026-04-30 08:03 | 48.35400 | 11.79599 | 1479 ft | 9 kts | 173° |
| 2026-04-30 08:03 | 48.35261 | 11.79623 | 1482 ft | 10 kts | 173° |
| 2026-04-30 08:03 | 48.35195 | 11.79634 | 1477 ft | 9 kts | 177° |
| 2026-04-30 08:04 | 48.35148 | 11.79608 | 1483 ft | 8 kts | 227° |
| 2026-04-30 08:04 | 48.35093 | 11.79539 | 1479 ft | 12 kts | 200° |
| 2026-04-30 08:04 | 48.35013 | 11.79529 | 1479 ft | 11 kts | 172° |
| 2026-04-30 08:04 | 48.34933 | 11.79545 | 1490 ft | 13 kts | 172° |
| 2026-04-30 08:05 | 48.34837 | 11.79560 | 1483 ft | 11 kts | 193° |
| 2026-04-30 08:05 | 48.34787 | 11.79483 | 1478 ft | 13 kts | 256° |
| 2026-04-30 08:05 | 48.34772 | 11.79314 | 1481 ft | 18 kts | 264° |
| 2026-04-30 08:05 | 48.34758 | 11.79114 | 1490 ft | 21 kts | 262° |
| 2026-04-30 08:06 | 48.34737 | 11.78890 | 1477 ft | 23 kts | 262° |
| 2026-04-30 08:06 | 48.34720 | 11.78639 | 1481 ft | 25 kts | 265° |
| 2026-04-30 08:06 | 48.34702 | 11.78392 | 1482 ft | 22 kts | 262° |
| 2026-04-30 08:06 | 48.34683 | 11.78150 | 1480 ft | 24 kts | 264° |
| 2026-04-30 08:07 | 48.34662 | 11.77887 | 1486 ft | 27 kts | 263° |
| 2026-04-30 08:07 | 48.34639 | 11.77599 | 1487 ft | 29 kts | 263° |
| 2026-04-30 08:07 | 48.34617 | 11.77298 | 1487 ft | 30 kts | 264° |
| 2026-04-30 08:07 | 48.34594 | 11.76991 | 1477 ft | 25 kts | 261° |
| 2026-04-30 08:08 | 48.34571 | 11.76723 | 1490 ft | 26 kts | 263° |
| 2026-04-30 08:08 | 48.34552 | 11.76467 | 1479 ft | 7 kts | 264° |
| 2026-04-30 08:08 | 48.34546 | 11.76387 | 1481 ft | 9 kts | 263° |
| 2026-04-30 08:08 | 48.34539 | 11.76287 | 1484 ft | 11 kts | 263° |
| 2026-04-30 08:09 | 48.34529 | 11.76162 | 1490 ft | 13 kts | 263° |
| 2026-04-30 08:09 | 48.34517 | 11.76007 | 1485 ft | 16 kts | 263° |
| 2026-04-30 08:09 | 48.34503 | 11.75825 | 1481 ft | 19 kts | 263° |
| 2026-04-30 08:09 | 48.34487 | 11.75617 | 1483 ft | 21 kts | 262° |
| 2026-04-30 08:10 | 48.34471 | 11.75379 | 1490 ft | 24 kts | 263° |
| 2026-04-30 08:10 | 48.34453 | 11.75170 | 1490 ft | 18 kts | 263° |
| 2026-04-30 08:10 | 48.34378 | 11.75071 | 1486 ft | 15 kts | 182° |
| 2026-04-30 08:10 | 48.34281 | 11.75084 | 1485 ft | 13 kts | 172° |
| 2026-04-30 08:11 | 48.34193 | 11.75104 | 1475 ft | 12 kts | 168° |
| 2026-04-30 08:11 | 48.34116 | 11.75153 | 1475 ft | 12 kts | 139° |
| 2026-04-30 08:11 | 48.34083 | 11.75242 | 1488 ft | 8 kts | 93° |
| 2026-04-30 08:11 | 48.34085 | 11.75289 | 1490 ft | 0 kts | 86° |
| 2026-04-30 08:12 | 48.34087 | 11.75351 | 1490 ft | 27 kts | 85° |
| 2026-04-30 08:12 | 48.34137 | 11.75999 | 1484 ft | 94 kts | 84° |
| 2026-04-30 08:12 | 48.34230 | 11.77215 | 1482 ft | 137 kts | 83° |
| 2026-04-30 08:12 | 48.34349 | 11.78749 | 1614 ft | 155 kts | 84° |
| 2026-04-30 08:13 | 48.34474 | 11.80342 | 2084 ft | 152 kts | 84° |
| 2026-04-30 08:13 | 48.34596 | 11.81935 | 2567 ft | 155 kts | 85° |
| 2026-04-30 08:13 | 48.34719 | 11.83541 | 3019 ft | 156 kts | 84° |
| 2026-04-30 08:13 | 48.34843 | 11.85181 | 3271 ft | 166 kts | 85° |
| 2026-04-30 08:14 | 48.34986 | 11.87031 | 3391 ft | 188 kts | 85° |
| 2026-04-30 08:14 | 48.35143 | 11.89046 | 3768 ft | 205 kts | 85° |
| 2026-04-30 08:14 | 48.35317 | 11.91294 | 4038 ft | 228 kts | 85° |
| 2026-04-30 08:14 | 48.35594 | 11.93725 | 4471 ft | 243 kts | 70° |
| 2026-04-30 08:15 | 48.36571 | 11.95818 | 5134 ft | 253 kts | 43° |
| 2026-04-30 08:15 | 48.38178 | 11.97011 | 5781 ft | 266 kts | 15° |
| 2026-04-30 08:15 | 48.40054 | 11.96954 | 6499 ft | 278 kts | 349° |
| 2026-04-30 08:15 | 48.41811 | 11.95616 | 7068 ft | 293 kts | 322° |
| 2026-04-30 08:16 | 48.43086 | 11.93198 | 7733 ft | 298 kts | 301° |
| 2026-04-30 08:16 | 48.44022 | 11.90411 | 8465 ft | 299 kts | 298° |
| 2026-04-30 08:16 | 48.44964 | 11.87625 | 9255 ft | 296 kts | 302° |
| 2026-04-30 08:16 | 48.45977 | 11.84958 | 10006 ft | 294 kts | 305° |
| 2026-04-30 08:17 | 48.47061 | 11.82341 | 10689 ft | 294 kts | 307° |
| 2026-04-30 08:17 | 48.48182 | 11.79759 | 11361 ft | 294 kts | 308° |
| 2026-04-30 08:17 | 48.49326 | 11.77179 | 11949 ft | 297 kts | 308° |
| 2026-04-30 08:17 | 48.50482 | 11.74577 | 12538 ft | 300 kts | 308° |
| 2026-04-30 08:18 | 48.51656 | 11.71940 | 12962 ft | 308 kts | 308° |
| 2026-04-30 08:18 | 48.52848 | 11.69248 | 13591 ft | 309 kts | 308° |
| 2026-04-30 08:18 | 48.54041 | 11.66541 | 14163 ft | 311 kts | 308° |
| 2026-04-30 08:18 | 48.55242 | 11.63815 | 14679 ft | 313 kts | 308° |
| 2026-04-30 08:19 | 48.56451 | 11.61066 | 15176 ft | 315 kts | 308° |
| 2026-04-30 08:19 | 48.57751 | 11.58415 | 15674 ft | 314 kts | 315° |
| 2026-04-30 08:19 | 48.59208 | 11.55882 | 15855 ft | 327 kts | 315° |
| 2026-04-30 08:19 | 48.60726 | 11.53218 | 16009 ft | 341 kts | 315° |
| 2026-04-30 08:20 | 48.62300 | 11.50433 | 16136 ft | 356 kts | 314° |
| 2026-04-30 08:20 | 48.63928 | 11.47539 | 16360 ft | 366 kts | 314° |
| 2026-04-30 08:20 | 48.65583 | 11.44586 | 16834 ft | 369 kts | 314° |
| 2026-04-30 08:20 | 48.67243 | 11.41619 | 17315 ft | 371 kts | 314° |
| 2026-04-30 08:21 | 48.68923 | 11.38639 | 17813 ft | 373 kts | 317° |
| 2026-04-30 08:21 | 48.70793 | 11.35936 | 18228 ft | 371 kts | 325° |
| 2026-04-30 08:21 | 48.72882 | 11.33670 | 18699 ft | 369 kts | 332° |
| 2026-04-30 08:21 | 48.75042 | 11.31528 | 19114 ft | 372 kts | 331° |
| 2026-04-30 08:22 | 48.77199 | 11.29345 | 19513 ft | 374 kts | 331° |
| 2026-04-30 08:22 | 48.79336 | 11.27170 | 19913 ft | 376 kts | 331° |
| 2026-04-30 08:22 | 48.81512 | 11.24955 | 20310 ft | 378 kts | 331° |
| 2026-04-30 08:22 | 48.83729 | 11.22822 | 20693 ft | 377 kts | 336° |
| 2026-04-30 08:23 | 48.86091 | 11.21141 | 21087 ft | 374 kts | 344° |
| 2026-04-30 08:23 | 48.88551 | 11.19881 | 21465 ft | 374 kts | 347° |
| 2026-04-30 08:23 | 48.91032 | 11.18643 | 21848 ft | 376 kts | 347° |
| 2026-04-30 08:23 | 48.93523 | 11.17374 | 22257 ft | 378 kts | 347° |
| 2026-04-30 08:24 | 48.96019 | 11.16097 | 22651 ft | 380 kts | 347° |
| 2026-04-30 08:24 | 48.98525 | 11.14817 | 23028 ft | 381 kts | 347° |
| 2026-04-30 08:24 | 49.01048 | 11.13529 | 23438 ft | 383 kts | 347° |
| 2026-04-30 08:24 | 49.03581 | 11.12238 | 23819 ft | 385 kts | 347° |
| 2026-04-30 08:25 | 49.06128 | 11.10939 | 24163 ft | 387 kts | 347° |
| 2026-04-30 08:25 | 49.08685 | 11.09634 | 24482 ft | 389 kts | 347° |
| 2026-04-30 08:25 | 49.11255 | 11.08320 | 24721 ft | 392 kts | 347° |
| 2026-04-30 08:25 | 49.13851 | 11.06996 | 25034 ft | 394 kts | 347° |
| 2026-04-30 08:26 | 49.16457 | 11.05665 | 25367 ft | 395 kts | 347° |
| 2026-04-30 08:26 | 49.19069 | 11.04331 | 25691 ft | 397 kts | 347° |
| 2026-04-30 08:26 | 49.21700 | 11.02982 | 26024 ft | 399 kts | 347° |
| 2026-04-30 08:26 | 49.24337 | 11.01624 | 26389 ft | 401 kts | 347° |
| 2026-04-30 08:27 | 49.26986 | 11.00257 | 26748 ft | 403 kts | 347° |
| 2026-04-30 08:27 | 49.29648 | 10.98884 | 27091 ft | 405 kts | 347° |
| 2026-04-30 08:27 | 49.32327 | 10.97500 | 27459 ft | 407 kts | 347° |
| 2026-04-30 08:27 | 49.35019 | 10.96096 | 27815 ft | 411 kts | 345° |
| 2026-04-30 08:28 | 49.37622 | 10.94167 | 28169 ft | 422 kts | 334° |
| 2026-04-30 08:28 | 49.39999 | 10.91436 | 28538 ft | 433 kts | 323° |
| 2026-04-30 08:28 | 49.42051 | 10.87985 | 28905 ft | 442 kts | 314° |
| 2026-04-30 08:28 | 49.43978 | 10.84284 | 29266 ft | 445 kts | 315° |
| 2026-04-30 08:29 | 49.45932 | 10.80580 | 29617 ft | 447 kts | 315° |
| 2026-04-30 08:29 | 49.47899 | 10.76860 | 29923 ft | 450 kts | 315° |
| 2026-04-30 08:29 | 49.49884 | 10.73102 | 30218 ft | 454 kts | 315° |
| 2026-04-30 08:29 | 49.51875 | 10.69318 | 30600 ft | 456 kts | 315° |
| 2026-04-30 08:30 | 49.53875 | 10.65510 | 30932 ft | 459 kts | 315° |
| 2026-04-30 08:30 | 49.55886 | 10.61672 | 31252 ft | 461 kts | 315° |
| 2026-04-30 08:30 | 49.57902 | 10.57820 | 31588 ft | 463 kts | 315° |
| 2026-04-30 08:30 | 49.59925 | 10.53947 | 31906 ft | 465 kts | 315° |
| 2026-04-30 08:31 | 49.61962 | 10.50043 | 32239 ft | 468 kts | 315° |
| 2026-04-30 08:31 | 49.63976 | 10.46178 | 32548 ft | 470 kts | 315° |
| 2026-04-30 08:31 | 49.65986 | 10.42181 | 32833 ft | 475 kts | 310° |
| 2026-04-30 08:31 | 49.67843 | 10.37935 | 33079 ft | 479 kts | 309° |
| 2026-04-30 08:32 | 49.69725 | 10.33667 | 33373 ft | 481 kts | 310° |
| 2026-04-30 08:32 | 49.71616 | 10.29394 | 33700 ft | 483 kts | 310° |
| 2026-04-30 08:32 | 49.73516 | 10.25095 | 34008 ft | 485 kts | 310° |
| 2026-04-30 08:32 | 49.75419 | 10.20778 | 34326 ft | 487 kts | 310° |
| 2026-04-30 08:33 | 49.77329 | 10.16431 | 34600 ft | 489 kts | 310° |
| 2026-04-30 08:33 | 49.79239 | 10.12078 | 34886 ft | 491 kts | 309° |
| 2026-04-30 08:33 | 49.81158 | 10.07696 | 35185 ft | 492 kts | 309° |
| 2026-04-30 08:33 | 49.83075 | 10.03307 | 35562 ft | 491 kts | 309° |
| 2026-04-30 08:34 | 49.84984 | 9.98930 | 35933 ft | 490 kts | 309° |
| 2026-04-30 08:34 | 49.86885 | 9.94566 | 36301 ft | 489 kts | 309° |
| 2026-04-30 08:34 | 49.88794 | 9.90179 | 36427 ft | 494 kts | 309° |
| 2026-04-30 08:35 | 49.92612 | 9.81376 | 36414 ft | 490 kts | 309° |
| 2026-04-30 08:35 | 49.96417 | 9.72578 | 36415 ft | 492 kts | 309° |
| 2026-04-30 08:36 | 50.00223 | 9.63748 | 36422 ft | 492 kts | 308° |
| 2026-04-30 08:36 | 50.04024 | 9.54897 | 36419 ft | 491 kts | 308° |
| 2026-04-30 08:37 | 50.06761 | 9.47094 | 36419 ft | 498 kts | 297° |
| 2026-04-30 08:37 | 50.08954 | 9.36790 | 36415 ft | 503 kts | 290° |
| 2026-04-30 08:38 | 50.10958 | 9.26363 | 36420 ft | 503 kts | 291° |
| 2026-04-30 08:38 | 50.12967 | 9.15918 | 36409 ft | 504 kts | 290° |
| 2026-04-30 08:39 | 50.14961 | 9.05430 | 36422 ft | 505 kts | 290° |
| 2026-04-30 08:39 | 50.16938 | 8.94936 | 36430 ft | 506 kts | 290° |
| 2026-04-30 08:40 | 50.18913 | 8.84394 | 36435 ft | 506 kts | 290° |
| 2026-04-30 08:40 | 50.20880 | 8.73834 | 36432 ft | 507 kts | 290° |
| 2026-04-30 08:41 | 50.22819 | 8.63367 | 36434 ft | 507 kts | 290° |
| 2026-04-30 08:41 | 50.24769 | 8.52776 | 36437 ft | 507 kts | 290° |
| 2026-04-30 08:42 | 50.26710 | 8.42179 | 36424 ft | 507 kts | 290° |
| 2026-04-30 08:42 | 50.28638 | 8.31583 | 36439 ft | 506 kts | 290° |
| 2026-04-30 08:43 | 50.30555 | 8.20999 | 36424 ft | 506 kts | 289° |
| 2026-04-30 08:43 | 50.32461 | 8.10408 | 36430 ft | 506 kts | 289° |
| 2026-04-30 08:44 | 50.34357 | 7.99804 | 36438 ft | 506 kts | 289° |
| 2026-04-30 08:44 | 50.36245 | 7.89189 | 36425 ft | 506 kts | 289° |
| 2026-04-30 08:45 | 50.38125 | 7.78564 | 36427 ft | 506 kts | 288° |
| 2026-04-30 08:45 | 50.39992 | 7.67937 | 36427 ft | 506 kts | 289° |
| 2026-04-30 08:46 | 50.41850 | 7.57300 | 36415 ft | 506 kts | 288° |
| 2026-04-30 08:46 | 50.43700 | 7.46647 | 36415 ft | 506 kts | 288° |
| 2026-04-30 08:47 | 50.45528 | 7.36060 | 36400 ft | 506 kts | 288° |
| 2026-04-30 08:47 | 50.47358 | 7.25395 | 36408 ft | 507 kts | 288° |
| 2026-04-30 08:48 | 50.49182 | 7.14698 | 36400 ft | 507 kts | 288° |
| 2026-04-30 08:48 | 50.50997 | 7.03987 | 36398 ft | 507 kts | 288° |
| 2026-04-30 08:49 | 50.52803 | 6.93266 | 36375 ft | 508 kts | 287° |
| 2026-04-30 08:49 | 50.54602 | 6.82514 | 36368 ft | 509 kts | 287° |
| 2026-04-30 08:50 | 50.56395 | 6.71733 | 36372 ft | 510 kts | 287° |
| 2026-04-30 08:50 | 50.58179 | 6.60942 | 36361 ft | 510 kts | 287° |
| 2026-04-30 08:51 | 50.59957 | 6.50116 | 36339 ft | 511 kts | 287° |
| 2026-04-30 08:51 | 50.61722 | 6.39299 | 36365 ft | 510 kts | 286° |
| 2026-04-30 08:52 | 50.63477 | 6.28470 | 36346 ft | 510 kts | 286° |
| 2026-04-30 08:52 | 50.65225 | 6.17618 | 36355 ft | 510 kts | 286° |
| 2026-04-30 08:53 | 50.66959 | 6.06782 | 36332 ft | 510 kts | 286° |
| 2026-04-30 08:53 | 50.68683 | 5.95946 | 36349 ft | 509 kts | 285° |
| 2026-04-30 08:54 | 50.70396 | 5.85095 | 36354 ft | 509 kts | 285° |
| 2026-04-30 08:54 | 50.72096 | 5.74258 | 36353 ft | 509 kts | 285° |
| 2026-04-30 08:55 | 50.73945 | 5.62393 | 36338 ft | 509 kts | 285° |
| 2026-04-30 08:55 | 50.75623 | 5.51552 | 36349 ft | 508 kts | 285° |
| 2026-04-30 08:56 | 50.77101 | 5.41937 | 36326 ft | 509 kts | 285° |
| 2026-04-30 08:56 | 50.78760 | 5.31077 | 36331 ft | 509 kts | 284° |
| 2026-04-30 08:57 | 50.80410 | 5.20204 | 36346 ft | 509 kts | 284° |
| 2026-04-30 08:57 | 50.82050 | 5.09323 | 36344 ft | 509 kts | 284° |
| 2026-04-30 08:58 | 50.83679 | 4.98440 | 36343 ft | 509 kts | 284° |
| 2026-04-30 08:58 | 50.85299 | 4.87537 | 36338 ft | 509 kts | 284° |
| 2026-04-30 08:59 | 50.86908 | 4.76632 | 36339 ft | 509 kts | 284° |
| 2026-04-30 08:59 | 50.88513 | 4.65707 | 36345 ft | 509 kts | 283° |
| 2026-04-30 09:00 | 50.90318 | 4.54889 | 36345 ft | 508 kts | 292° |
| 2026-04-30 09:00 | 50.93616 | 4.45045 | 36341 ft | 506 kts | 303° |
| 2026-04-30 09:01 | 50.97277 | 4.35521 | 36347 ft | 506 kts | 302° |
| 2026-04-30 09:01 | 51.00928 | 4.25954 | 36341 ft | 506 kts | 302° |
| 2026-04-30 09:02 | 51.06391 | 4.11590 | 36334 ft | 506 kts | 302° |
| 2026-04-30 09:02 | 51.10025 | 4.01992 | 36330 ft | 506 kts | 302° |
| 2026-04-30 09:03 | 51.13651 | 3.92381 | 36323 ft | 506 kts | 302° |
| 2026-04-30 09:03 | 51.17270 | 3.82751 | 36321 ft | 506 kts | 302° |
| 2026-04-30 09:04 | 51.20882 | 3.73103 | 36311 ft | 507 kts | 301° |
| 2026-04-30 09:04 | 51.23803 | 3.62893 | 36311 ft | 508 kts | 288° |
| 2026-04-30 09:05 | 51.25429 | 3.51933 | 36309 ft | 508 kts | 282° |
| 2026-04-30 09:05 | 51.26904 | 3.40902 | 36312 ft | 508 kts | 282° |
| 2026-04-30 09:06 | 51.28353 | 3.29840 | 36310 ft | 509 kts | 281° |
| 2026-04-30 09:06 | 51.29768 | 3.18770 | 36303 ft | 509 kts | 281° |
| 2026-04-30 09:07 | 51.31174 | 3.07692 | 36303 ft | 509 kts | 281° |
| 2026-04-30 09:07 | 51.32570 | 2.96608 | 36301 ft | 509 kts | 281° |
| 2026-04-30 09:08 | 51.33957 | 2.85514 | 36322 ft | 509 kts | 281° |
| 2026-04-30 09:08 | 51.35334 | 2.74409 | 36317 ft | 508 kts | 280° |
| 2026-04-30 09:09 | 51.36702 | 2.63323 | 36308 ft | 508 kts | 280° |
| 2026-04-30 09:09 | 51.38062 | 2.52227 | 36307 ft | 508 kts | 280° |
| 2026-04-30 09:10 | 51.39411 | 2.41131 | 36304 ft | 508 kts | 280° |
| 2026-04-30 09:10 | 51.40749 | 2.30030 | 36316 ft | 507 kts | 280° |
| 2026-04-30 09:11 | 51.42086 | 2.18945 | 36310 ft | 507 kts | 280° |
| 2026-04-30 09:11 | 51.43439 | 2.07879 | 36304 ft | 506 kts | 280° |
| 2026-04-30 09:12 | 51.44778 | 1.96808 | 36300 ft | 506 kts | 279° |
| 2026-04-30 09:12 | 51.46082 | 1.85729 | 36302 ft | 505 kts | 279° |
| 2026-04-30 09:13 | 51.47362 | 1.74654 | 36299 ft | 505 kts | 279° |
| 2026-04-30 09:13 | 51.48623 | 1.63654 | 36304 ft | 505 kts | 279° |
| 2026-04-30 09:14 | 51.49884 | 1.52577 | 36304 ft | 505 kts | 279° |
| 2026-04-30 09:14 | 51.51137 | 1.41482 | 36304 ft | 505 kts | 279° |
| 2026-04-30 09:15 | 51.52379 | 1.30375 | 36304 ft | 505 kts | 279° |
| 2026-04-30 09:15 | 51.53612 | 1.19255 | 36309 ft | 506 kts | 278° |
| 2026-04-30 09:16 | 51.54585 | 1.08066 | 36294 ft | 505 kts | 274° |
| 2026-04-30 09:16 | 51.55298 | 0.96831 | 36285 ft | 506 kts | 274° |
| 2026-04-30 09:17 | 51.56015 | 0.85577 | 36278 ft | 507 kts | 274° |
| 2026-04-30 09:17 | 51.56718 | 0.74297 | 36294 ft | 508 kts | 274° |
| 2026-04-30 09:18 | 51.57410 | 0.62991 | 36309 ft | 508 kts | 274° |
| 2026-04-30 09:18 | 51.58090 | 0.51674 | 36304 ft | 508 kts | 274° |
| 2026-04-30 09:19 | 51.58760 | 0.40365 | 36306 ft | 509 kts | 273° |
| 2026-04-30 09:19 | 51.59419 | 0.29038 | 36268 ft | 509 kts | 273° |
| 2026-04-30 09:20 | 51.60066 | 0.17728 | 36263 ft | 508 kts | 273° |
| 2026-04-30 09:20 | 51.60703 | 0.06402 | 36276 ft | 508 kts | 273° |
| 2026-04-30 09:21 | 51.61329 | -0.04915 | 36322 ft | 508 kts | 272° |
| 2026-04-30 09:21 | 51.61955 | -0.16228 | 36337 ft | 508 kts | 273° |
| 2026-04-30 09:22 | 51.62659 | -0.27531 | 36340 ft | 507 kts | 273° |
| 2026-04-30 09:22 | 51.63357 | -0.38820 | 36235 ft | 507 kts | 273° |
| 2026-04-30 09:23 | 51.64034 | -0.50126 | 36234 ft | 507 kts | 273° |
| 2026-04-30 09:23 | 51.64696 | -0.61433 | 36237 ft | 507 kts | 273° |
| 2026-04-30 09:24 | 51.65349 | -0.72752 | 36238 ft | 507 kts | 273° |
| 2026-04-30 09:24 | 51.65990 | -0.84061 | 36240 ft | 508 kts | 272° |
| 2026-04-30 09:25 | 51.66621 | -0.95390 | 36210 ft | 508 kts | 272° |
| 2026-04-30 09:25 | 51.67241 | -1.06716 | 36222 ft | 507 kts | 272° |
| 2026-04-30 09:26 | 51.67747 | -1.16120 | 36223 ft | 507 kts | 272° |
| 2026-04-30 09:26 | 51.68347 | -1.27444 | 36215 ft | 507 kts | 272° |
| 2026-04-30 09:27 | 51.68934 | -1.38740 | 36208 ft | 506 kts | 272° |
| 2026-04-30 09:27 | 51.69510 | -1.50044 | 36210 ft | 506 kts | 272° |
| 2026-04-30 09:28 | 51.70074 | -1.61332 | 36209 ft | 505 kts | 272° |
| 2026-04-30 09:28 | 51.70655 | -1.72620 | 36215 ft | 505 kts | 274° |
| 2026-04-30 09:29 | 51.71494 | -1.83862 | 36214 ft | 506 kts | 275° |
| 2026-04-30 09:29 | 51.72339 | -1.95125 | 36225 ft | 505 kts | 274° |
| 2026-04-30 09:30 | 51.73141 | -2.06367 | 36226 ft | 504 kts | 274° |
| 2026-04-30 09:30 | 51.73923 | -2.17603 | 36217 ft | 504 kts | 274° |
| 2026-04-30 09:31 | 51.74692 | -2.28827 | 36211 ft | 503 kts | 274° |
| 2026-04-30 09:31 | 51.75451 | -2.40044 | 36206 ft | 502 kts | 274° |
| 2026-04-30 09:32 | 51.76191 | -2.51168 | 36218 ft | 501 kts | 274° |
| 2026-04-30 09:32 | 51.76926 | -2.62347 | 36207 ft | 501 kts | 274° |
| 2026-04-30 09:33 | 51.77649 | -2.73525 | 36198 ft | 500 kts | 274° |
| 2026-04-30 09:33 | 51.78361 | -2.84699 | 36333 ft | 500 kts | 274° |
| 2026-04-30 09:34 | 51.79062 | -2.95877 | 36312 ft | 502 kts | 274° |
| 2026-04-30 09:34 | 51.79755 | -3.07096 | 36323 ft | 502 kts | 273° |
| 2026-04-30 09:35 | 51.80439 | -3.18342 | 36301 ft | 504 kts | 273° |
| 2026-04-30 09:35 | 51.81114 | -3.29619 | 36269 ft | 505 kts | 273° |
| 2026-04-30 09:36 | 51.81780 | -3.40923 | 36243 ft | 506 kts | 273° |
| 2026-04-30 09:36 | 51.82437 | -3.52236 | 36199 ft | 505 kts | 274° |
| 2026-04-30 09:37 | 51.83751 | -3.63407 | 36190 ft | 506 kts | 279° |
| 2026-04-30 09:37 | 51.85208 | -3.74535 | 36178 ft | 505 kts | 279° |
| 2026-04-30 09:38 | 51.86638 | -3.85654 | 36178 ft | 504 kts | 279° |
| 2026-04-30 09:38 | 51.88052 | -3.96758 | 36152 ft | 504 kts | 279° |
| 2026-04-30 09:39 | 51.89454 | -4.07871 | 36148 ft | 503 kts | 279° |
| 2026-04-30 09:39 | 51.90845 | -4.18974 | 36139 ft | 503 kts | 279° |
| 2026-04-30 09:40 | 51.92226 | -4.30088 | 36134 ft | 503 kts | 278° |
| 2026-04-30 09:40 | 51.93596 | -4.41209 | 36145 ft | 504 kts | 278° |
| 2026-04-30 09:41 | 51.94959 | -4.52358 | 36125 ft | 504 kts | 278° |
| 2026-04-30 09:41 | 51.96311 | -4.63523 | 36124 ft | 505 kts | 278° |
| 2026-04-30 09:42 | 51.97655 | -4.74706 | 36121 ft | 505 kts | 278° |
| 2026-04-30 09:42 | 51.98979 | -4.85817 | 36124 ft | 506 kts | 278° |
| 2026-04-30 09:43 | 52.00304 | -4.97033 | 36130 ft | 506 kts | 277° |
| 2026-04-30 09:43 | 52.01619 | -5.08263 | 36137 ft | 507 kts | 277° |
| 2026-04-30 09:44 | 52.02962 | -5.19488 | 36126 ft | 508 kts | 281° |
| 2026-04-30 09:44 | 52.05125 | -5.30436 | 36122 ft | 509 kts | 285° |
| 2026-04-30 09:45 | 52.07342 | -5.41369 | 36126 ft | 509 kts | 285° |
| 2026-04-30 09:45 | 52.09537 | -5.52312 | 36124 ft | 509 kts | 285° |
| 2026-04-30 09:46 | 52.11720 | -5.63262 | 36122 ft | 509 kts | 285° |
| 2026-04-30 09:46 | 52.13896 | -5.74238 | 36121 ft | 509 kts | 285° |
| 2026-04-30 09:47 | 52.16058 | -5.85205 | 36130 ft | 509 kts | 285° |
| 2026-04-30 09:47 | 52.18262 | -5.96169 | 36120 ft | 510 kts | 285° |
| 2026-04-30 09:48 | 52.20496 | -6.07130 | 36126 ft | 510 kts | 285° |
| 2026-04-30 09:48 | 52.22725 | -6.18111 | 36129 ft | 510 kts | 285° |
| 2026-04-30 09:49 | 52.24940 | -6.29092 | 36131 ft | 510 kts | 285° |
| 2026-04-30 09:49 | 52.27141 | -6.40097 | 36132 ft | 510 kts | 285° |
| 2026-04-30 09:50 | 52.29330 | -6.51126 | 36124 ft | 511 kts | 285° |
| 2026-04-30 09:50 | 52.31510 | -6.62181 | 36127 ft | 512 kts | 285° |
| 2026-04-30 09:51 | 52.33685 | -6.73271 | 36123 ft | 512 kts | 285° |
| 2026-04-30 09:51 | 52.35845 | -6.84347 | 36142 ft | 512 kts | 285° |
| 2026-04-30 09:52 | 52.37998 | -6.95449 | 36144 ft | 512 kts | 285° |
| 2026-04-30 09:52 | 52.40143 | -7.06579 | 36120 ft | 513 kts | 284° |
| 2026-04-30 09:53 | 52.42283 | -7.17747 | 36118 ft | 514 kts | 284° |
| 2026-04-30 09:53 | 52.44413 | -7.28925 | 36122 ft | 514 kts | 284° |
| 2026-04-30 09:54 | 52.46533 | -7.40120 | 36118 ft | 514 kts | 284° |
| 2026-04-30 09:54 | 52.48630 | -7.51257 | 36127 ft | 515 kts | 284° |
| 2026-04-30 09:55 | 52.50735 | -7.62506 | 36106 ft | 516 kts | 283° |
| 2026-04-30 09:55 | 52.51788 | -7.68164 | 36265 ft | 519 kts | 284° |
| 2026-04-30 09:55 | 52.52849 | -7.73879 | 36781 ft | 515 kts | 284° |
| 2026-04-30 09:56 | 52.53892 | -7.79511 | 37081 ft | 516 kts | 284° |
| 2026-04-30 09:56 | 52.54915 | -7.85048 | 37112 ft | 511 kts | 284° |
| 2026-04-30 09:56 | 52.56964 | -7.96197 | 37111 ft | 510 kts | 283° |
| 2026-04-30 09:57 | 52.59005 | -8.07376 | 37104 ft | 512 kts | 283° |
| 2026-04-30 09:57 | 52.61046 | -8.18623 | 37103 ft | 513 kts | 283° |
| 2026-04-30 09:58 | 52.63076 | -8.29872 | 37099 ft | 513 kts | 283° |
| 2026-04-30 09:58 | 52.65095 | -8.41131 | 37094 ft | 512 kts | 283° |
| 2026-04-30 09:59 | 52.69085 | -8.63593 | 37053 ft | 511 kts | 283° |
| 2026-04-30 10:00 | 52.72050 | -8.80467 | 37056 ft | 511 kts | 283° |
| 2026-04-30 10:01 | 52.74991 | -8.97367 | 37062 ft | 511 kts | 282° |
| 2026-04-30 10:02 | 52.77911 | -9.14313 | 37052 ft | 513 kts | 282° |
| 2026-04-30 10:02 | 52.79852 | -9.25662 | 37065 ft | 514 kts | 282° |
| 2026-04-30 10:03 | 52.81787 | -9.37046 | 37070 ft | 515 kts | 282° |
| 2026-04-30 10:03 | 52.83716 | -9.48476 | 37078 ft | 516 kts | 282° |
| 2026-04-30 10:04 | 52.85624 | -9.59858 | 37089 ft | 517 kts | 282° |
| 2026-04-30 10:04 | 52.87536 | -9.71338 | 37101 ft | 518 kts | 282° |
| 2026-04-30 10:05 | 52.89441 | -9.82849 | 37095 ft | 518 kts | 282° |
| 2026-04-30 10:05 | 52.91336 | -9.94378 | 37105 ft | 519 kts | 282° |
| 2026-04-30 10:06 | 52.93221 | -10.05922 | 37104 ft | 518 kts | 282° |
| 2026-04-30 10:06 | 52.95090 | -10.17453 | 37105 ft | 518 kts | 282° |
| 2026-04-30 10:07 | 52.96949 | -10.28996 | 37090 ft | 518 kts | 282° |
| 2026-04-30 10:07 | 52.98800 | -10.40571 | 37092 ft | 520 kts | 282° |
| 2026-04-30 10:08 | 53.00640 | -10.52157 | 37101 ft | 519 kts | 282° |
| 2026-04-30 10:08 | 53.02469 | -10.63756 | 37097 ft | 519 kts | 282° |
| 2026-04-30 10:09 | 53.04283 | -10.75336 | 37085 ft | 518 kts | 282° |
| 2026-04-30 10:09 | 53.06071 | -10.86835 | 37081 ft | 517 kts | 281° |
| 2026-04-30 10:10 | 53.07855 | -10.98396 | 37081 ft | 517 kts | 281° |
| 2026-04-30 10:10 | 53.09631 | -11.09983 | 37084 ft | 517 kts | 281° |
| 2026-04-30 10:11 | 53.11397 | -11.21580 | 37081 ft | 517 kts | 281° |
| 2026-04-30 10:11 | 53.13150 | -11.33186 | 37069 ft | 517 kts | 281° |
| 2026-04-30 10:12 | 53.14894 | -11.44807 | 37071 ft | 517 kts | 281° |
| 2026-04-30 10:12 | 53.16627 | -11.56450 | 37075 ft | 518 kts | 281° |
| 2026-04-30 10:13 | 53.18349 | -11.68096 | 37088 ft | 518 kts | 281° |
| 2026-04-30 10:13 | 53.20066 | -11.79795 | 37096 ft | 519 kts | 281° |
| 2026-04-30 10:14 | 53.21771 | -11.91509 | 37104 ft | 520 kts | 281° |
| 2026-04-30 10:14 | 53.24025 | -12.07116 | 37107 ft | 520 kts | 281° |
| 2026-04-30 10:15 | 53.25705 | -12.18857 | 37103 ft | 520 kts | 281° |
| 2026-04-30 10:15 | 53.27372 | -12.30602 | 37100 ft | 519 kts | 281° |
| 2026-04-30 10:16 | 53.29294 | -12.44250 | 37087 ft | 519 kts | 281° |
| 2026-04-30 10:17 | 53.31487 | -12.59976 | 37096 ft | 519 kts | 281° |
| 2026-04-30 10:17 | 53.33917 | -12.77599 | 37102 ft | 518 kts | 280° |
| 2026-04-30 10:18 | 53.35519 | -12.89335 | 37104 ft | 517 kts | 280° |
| 2026-04-30 10:19 | 53.37898 | -13.06933 | 37100 ft | 516 kts | 280° |
| 2026-04-30 10:19 | 53.39468 | -13.18661 | 37094 ft | 516 kts | 280° |
| 2026-04-30 10:20 | 53.41025 | -13.30392 | 37095 ft | 515 kts | 280° |
| 2026-04-30 10:20 | 53.43329 | -13.47920 | 37093 ft | 515 kts | 280° |
| 2026-04-30 10:21 | 53.44855 | -13.59660 | 37105 ft | 515 kts | 280° |
| 2026-04-30 10:21 | 53.46374 | -13.71399 | 37109 ft | 515 kts | 280° |
| 2026-04-30 10:22 | 53.47886 | -13.83138 | 37114 ft | 514 kts | 279° |
| 2026-04-30 10:22 | 53.49347 | -13.94880 | 37109 ft | 513 kts | 277° |
| 2026-04-30 10:23 | 53.50042 | -14.06730 | 37104 ft | 508 kts | 268° |
| 2026-04-30 10:23 | 53.50029 | -14.18588 | 37106 ft | 507 kts | 268° |
| 2026-04-30 10:24 | 53.50080 | -14.30429 | 37111 ft | 507 kts | 268° |
| 2026-04-30 10:24 | 53.50106 | -14.42272 | 37109 ft | 507 kts | 267° |
| 2026-04-30 10:25 | 53.50109 | -14.54102 | 37108 ft | 506 kts | 267° |
| 2026-04-30 10:25 | 53.50098 | -14.65930 | 37119 ft | 506 kts | 267° |
| 2026-04-30 10:26 | 53.50076 | -14.77759 | 37113 ft | 506 kts | 267° |
| 2026-04-30 10:26 | 53.50043 | -14.89566 | 37107 ft | 506 kts | 267° |
| 2026-04-30 10:27 | 53.49999 | -15.01374 | 37115 ft | 506 kts | 268° |
| 2026-04-30 10:27 | 53.50192 | -15.13193 | 37121 ft | 507 kts | 270° |
| 2026-04-30 10:28 | 53.50474 | -15.25004 | 37131 ft | 505 kts | 270° |
| 2026-04-30 10:28 | 53.50713 | -15.36785 | 37131 ft | 504 kts | 270° |
| 2026-04-30 10:29 | 53.50920 | -15.48536 | 37144 ft | 502 kts | 270° |
| 2026-04-30 10:29 | 53.51111 | -15.60258 | 37138 ft | 501 kts | 269° |
| 2026-04-30 10:30 | 53.51290 | -15.71951 | 37152 ft | 500 kts | 269° |
| 2026-04-30 10:30 | 53.51458 | -15.83627 | 37146 ft | 500 kts | 269° |
| 2026-04-30 10:31 | 53.51614 | -15.95278 | 37150 ft | 498 kts | 269° |
| 2026-04-30 10:31 | 53.51758 | -16.06925 | 37134 ft | 498 kts | 269° |
| 2026-04-30 10:32 | 53.51892 | -16.18549 | 37146 ft | 497 kts | 269° |
| 2026-04-30 10:32 | 53.52013 | -16.30175 | 37147 ft | 497 kts | 270° |
| 2026-04-30 10:33 | 53.52124 | -16.41789 | 37146 ft | 497 kts | 269° |
| 2026-04-30 10:33 | 53.52222 | -16.53340 | 37159 ft | 497 kts | 270° |
| 2026-04-30 10:34 | 53.52311 | -16.64967 | 37149 ft | 498 kts | 269° |
| 2026-04-30 10:34 | 53.52388 | -16.76621 | 37170 ft | 498 kts | 269° |
| 2026-04-30 10:35 | 53.52453 | -16.88281 | 37116 ft | 500 kts | 269° |
| 2026-04-30 10:35 | 53.52507 | -16.99957 | 37169 ft | 500 kts | 269° |
| 2026-04-30 10:36 | 53.52551 | -17.11664 | 37155 ft | 501 kts | 269° |
| 2026-04-30 10:36 | 53.52582 | -17.23365 | 37196 ft | 501 kts | 269° |
| 2026-04-30 10:37 | 53.52603 | -17.35067 | 37188 ft | 500 kts | 270° |
| 2026-04-30 10:37 | 53.52611 | -17.46742 | 37194 ft | 499 kts | 270° |
| 2026-04-30 10:38 | 53.52609 | -17.58384 | 37194 ft | 498 kts | 269° |
| 2026-04-30 10:38 | 53.52595 | -17.69999 | 37177 ft | 497 kts | 269° |
| 2026-04-30 10:39 | 53.52571 | -17.81603 | 37186 ft | 496 kts | 269° |
| 2026-04-30 10:39 | 53.52533 | -17.93093 | 37192 ft | 494 kts | 270° |
| 2026-04-30 10:40 | 53.52486 | -18.04639 | 37181 ft | 494 kts | 270° |
| 2026-04-30 10:40 | 53.52429 | -18.16163 | 37193 ft | 493 kts | 270° |
| 2026-04-30 10:41 | 53.52360 | -18.27679 | 37188 ft | 493 kts | 270° |
| 2026-04-30 10:41 | 53.52280 | -18.39188 | 37165 ft | 493 kts | 270° |
| 2026-04-30 10:42 | 53.52188 | -18.50695 | 37213 ft | 492 kts | 270° |
| 2026-04-30 10:42 | 53.52086 | -18.62191 | 37200 ft | 492 kts | 270° |
| 2026-04-30 10:43 | 53.51973 | -18.73685 | 37211 ft | 492 kts | 270° |
| 2026-04-30 10:43 | 53.51850 | -18.85169 | 37214 ft | 491 kts | 269° |
| 2026-04-30 10:44 | 53.51716 | -18.96635 | 37228 ft | 490 kts | 268° |
| 2026-04-30 10:44 | 53.51570 | -19.08049 | 37218 ft | 488 kts | 268° |
| 2026-04-30 10:45 | 53.51414 | -19.19432 | 37213 ft | 487 kts | 268° |
| 2026-04-30 10:45 | 53.51248 | -19.30785 | 37208 ft | 485 kts | 268° |
| 2026-04-30 10:46 | 53.51071 | -19.42115 | 37200 ft | 485 kts | 268° |
| 2026-04-30 10:46 | 53.50885 | -19.53419 | 37222 ft | 483 kts | 268° |
| 2026-04-30 10:47 | 53.50688 | -19.64692 | 37215 ft | 482 kts | 268° |
| 2026-04-30 10:47 | 53.50481 | -19.75935 | 37193 ft | 482 kts | 268° |
| 2026-04-30 10:48 | 53.50267 | -19.87164 | 37214 ft | 481 kts | 268° |
| 2026-04-30 10:48 | 53.50038 | -19.98393 | 37184 ft | 481 kts | 266° |
| 2026-04-30 10:49 | 53.49407 | -20.09541 | 37230 ft | 479 kts | 264° |
| 2026-04-30 10:49 | 53.48768 | -20.20669 | 37221 ft | 478 kts | 264° |
| 2026-04-30 10:50 | 53.48137 | -20.31779 | 37223 ft | 478 kts | 264° |
| 2026-04-30 10:50 | 53.47489 | -20.42881 | 37217 ft | 478 kts | 264° |
| 2026-04-30 10:51 | 53.46829 | -20.53961 | 37212 ft | 478 kts | 264° |
| 2026-04-30 10:51 | 53.46155 | -20.65041 | 37225 ft | 477 kts | 264° |
| 2026-04-30 10:52 | 53.45466 | -20.76102 | 37238 ft | 476 kts | 263° |
| 2026-04-30 10:52 | 53.44768 | -20.87132 | 37238 ft | 475 kts | 263° |
| 2026-04-30 10:53 | 53.44060 | -20.98145 | 37225 ft | 475 kts | 263° |
| 2026-04-30 10:53 | 53.43342 | -21.09150 | 37238 ft | 474 kts | 264° |
| 2026-04-30 10:54 | 53.42621 | -21.20038 | 37268 ft | 472 kts | 264° |
| 2026-04-30 10:54 | 53.41889 | -21.30968 | 37202 ft | 472 kts | 264° |
| 2026-04-30 10:55 | 53.41148 | -21.41860 | 37231 ft | 470 kts | 264° |
| 2026-04-30 10:55 | 53.40398 | -21.52739 | 37245 ft | 469 kts | 264° |
| 2026-04-30 10:56 | 53.39639 | -21.63600 | 37244 ft | 469 kts | 264° |
| 2026-04-30 10:56 | 53.38869 | -21.74471 | 37249 ft | 470 kts | 264° |
| 2026-04-30 10:57 | 53.38090 | -21.85336 | 37203 ft | 471 kts | 263° |
| 2026-04-30 10:57 | 53.37299 | -21.96212 | 37261 ft | 470 kts | 263° |
| 2026-04-30 10:58 | 53.36498 | -22.07090 | 37264 ft | 471 kts | 263° |
| 2026-04-30 10:58 | 53.35686 | -22.17979 | 37260 ft | 471 kts | 264° |
| 2026-04-30 10:59 | 53.34863 | -22.28882 | 37267 ft | 472 kts | 264° |
| 2026-04-30 10:59 | 53.34030 | -22.39789 | 37233 ft | 474 kts | 263° |
| 2026-04-30 11:00 | 53.33184 | -22.50711 | 37288 ft | 473 kts | 263° |
| 2026-04-30 11:00 | 53.32329 | -22.61631 | 37287 ft | 474 kts | 263° |
| 2026-04-30 11:01 | 53.31463 | -22.72554 | 37278 ft | 474 kts | 263° |
| 2026-04-30 11:01 | 53.30587 | -22.83484 | 37292 ft | 474 kts | 264° |
| 2026-04-30 11:02 | 53.29850 | -22.92582 | 37249 ft | 476 kts | 264° |
| 2026-04-30 11:02 | 53.28799 | -23.05382 | 37279 ft | 476 kts | 264° |
| 2026-04-30 11:03 | 53.28044 | -23.14496 | 37284 ft | 476 kts | 264° |
| 2026-04-30 11:04 | 53.26659 | -23.30950 | 37291 ft | 477 kts | 264° |
| 2026-04-30 11:04 | 53.25722 | -23.41930 | 37305 ft | 478 kts | 264° |
| 2026-04-30 11:05 | 53.24776 | -23.52912 | 37306 ft | 478 kts | 264° |
| 2026-04-30 11:05 | 53.23819 | -23.63881 | 37307 ft | 478 kts | 263° |
| 2026-04-30 11:06 | 53.22852 | -23.74847 | 37300 ft | 478 kts | 263° |
| 2026-04-30 11:06 | 53.21874 | -23.85828 | 37303 ft | 478 kts | 264° |
| 2026-04-30 11:07 | 53.20886 | -23.96798 | 37306 ft | 479 kts | 263° |
| 2026-04-30 11:07 | 53.19886 | -24.07780 | 37317 ft | 479 kts | 264° |
| 2026-04-30 11:08 | 53.18877 | -24.18754 | 37311 ft | 479 kts | 263° |
| 2026-04-30 11:08 | 53.17857 | -24.29725 | 37317 ft | 479 kts | 263° |
| 2026-04-30 11:09 | 53.16825 | -24.40706 | 37324 ft | 479 kts | 263° |
| 2026-04-30 11:09 | 53.15785 | -24.51677 | 37321 ft | 480 kts | 263° |
| 2026-04-30 11:10 | 53.14732 | -24.62654 | 37328 ft | 480 kts | 263° |
| 2026-04-30 11:10 | 53.13670 | -24.73622 | 37321 ft | 480 kts | 263° |
| 2026-04-30 11:11 | 53.12598 | -24.84593 | 37331 ft | 480 kts | 263° |
| 2026-04-30 11:11 | 53.11515 | -24.95559 | 37335 ft | 480 kts | 263° |
| 2026-04-30 11:12 | 53.10429 | -25.06445 | 37334 ft | 480 kts | 263° |
| 2026-04-30 11:12 | 53.09325 | -25.17413 | 37339 ft | 481 kts | 263° |
| 2026-04-30 11:13 | 53.08210 | -25.28378 | 37331 ft | 481 kts | 263° |
| 2026-04-30 11:13 | 53.07082 | -25.39364 | 37339 ft | 482 kts | 263° |
| 2026-04-30 11:14 | 53.05944 | -25.50351 | 37348 ft | 483 kts | 262° |
| 2026-04-30 11:14 | 53.04793 | -25.61362 | 37351 ft | 483 kts | 262° |
| 2026-04-30 11:15 | 53.03631 | -25.72364 | 37351 ft | 484 kts | 262° |
| 2026-04-30 11:15 | 53.02457 | -25.83379 | 37340 ft | 485 kts | 262° |
| 2026-04-30 11:16 | 53.01272 | -25.94405 | 37350 ft | 486 kts | 262° |
| 2026-04-30 11:16 | 53.00073 | -26.05450 | 37357 ft | 486 kts | 262° |
| 2026-04-30 11:17 | 52.98864 | -26.16495 | 37360 ft | 487 kts | 262° |
| 2026-04-30 11:17 | 52.97643 | -26.27545 | 37339 ft | 487 kts | 262° |
| 2026-04-30 11:18 | 52.96409 | -26.38609 | 37353 ft | 488 kts | 262° |
| 2026-04-30 11:18 | 52.94536 | -26.55233 | 37360 ft | 489 kts | 262° |
| 2026-04-30 11:19 | 52.93272 | -26.66321 | 37365 ft | 490 kts | 262° |
| 2026-04-30 11:19 | 52.91997 | -26.77414 | 37367 ft | 490 kts | 262° |
| 2026-04-30 11:20 | 52.90711 | -26.88498 | 37371 ft | 490 kts | 262° |
| 2026-04-30 11:20 | 52.89415 | -26.99583 | 37371 ft | 490 kts | 262° |
| 2026-04-30 11:21 | 52.88109 | -27.10654 | 37373 ft | 490 kts | 262° |
| 2026-04-30 11:21 | 52.86793 | -27.21714 | 37372 ft | 490 kts | 261° |
| 2026-04-30 11:22 | 52.85467 | -27.32765 | 37365 ft | 490 kts | 261° |
| 2026-04-30 11:22 | 52.84131 | -27.43814 | 37368 ft | 490 kts | 261° |
| 2026-04-30 11:23 | 52.82782 | -27.54876 | 37370 ft | 491 kts | 261° |
| 2026-04-30 11:24 | 52.80736 | -27.71473 | 37382 ft | 491 kts | 261° |
| 2026-04-30 11:24 | 52.79368 | -27.82463 | 37376 ft | 492 kts | 261° |
| 2026-04-30 11:25 | 52.77279 | -27.99081 | 37383 ft | 493 kts | 261° |
| 2026-04-30 11:26 | 52.74451 | -28.21255 | 37386 ft | 494 kts | 261° |
| 2026-04-30 11:26 | 52.73021 | -28.32340 | 37385 ft | 494 kts | 261° |
| 2026-04-30 11:27 | 52.71578 | -28.43429 | 37390 ft | 495 kts | 261° |
| 2026-04-30 11:27 | 52.70124 | -28.54523 | 37400 ft | 495 kts | 261° |
| 2026-04-30 11:28 | 52.67923 | -28.71152 | 37394 ft | 495 kts | 260° |
| 2026-04-30 11:29 | 52.66443 | -28.82227 | 37383 ft | 495 kts | 260° |
| 2026-04-30 11:29 | 52.64199 | -28.98859 | 37389 ft | 496 kts | 260° |
| 2026-04-30 11:30 | 52.61930 | -29.15489 | 37396 ft | 497 kts | 260° |
| 2026-04-30 11:31 | 52.60402 | -29.26584 | 37398 ft | 497 kts | 260° |
| 2026-04-30 11:31 | 52.58862 | -29.37677 | 37398 ft | 498 kts | 260° |
| 2026-04-30 11:32 | 52.57308 | -29.48796 | 37408 ft | 499 kts | 260° |
| 2026-04-30 11:32 | 52.55743 | -29.59922 | 37410 ft | 500 kts | 260° |
| 2026-04-30 11:33 | 52.53380 | -29.76632 | 37404 ft | 501 kts | 260° |
| 2026-04-30 11:33 | 52.51793 | -29.87775 | 37410 ft | 501 kts | 260° |
| 2026-04-30 11:34 | 52.50194 | -29.98915 | 37415 ft | 502 kts | 259° |
| 2026-04-30 11:34 | 52.49125 | -30.10150 | 37412 ft | 497 kts | 269° |
| 2026-04-30 11:35 | 52.48664 | -30.21459 | 37417 ft | 497 kts | 269° |
| 2026-04-30 11:35 | 52.48088 | -30.32777 | 37405 ft | 498 kts | 268° |
| 2026-04-30 11:36 | 52.47434 | -30.44091 | 37409 ft | 499 kts | 267° |
| 2026-04-30 11:36 | 52.46759 | -30.55423 | 37413 ft | 499 kts | 267° |
| 2026-04-30 11:37 | 52.46074 | -30.66683 | 37420 ft | 500 kts | 267° |
| 2026-04-30 11:37 | 52.45369 | -30.78020 | 37418 ft | 500 kts | 267° |
| 2026-04-30 11:38 | 52.44652 | -30.89361 | 37417 ft | 501 kts | 267° |
| 2026-04-30 11:38 | 52.43923 | -31.00722 | 37422 ft | 502 kts | 267° |
| 2026-04-30 11:39 | 52.43182 | -31.12093 | 37432 ft | 502 kts | 267° |
| 2026-04-30 11:39 | 52.42429 | -31.23466 | 37434 ft | 502 kts | 267° |
| 2026-04-30 11:40 | 52.41665 | -31.34846 | 37418 ft | 503 kts | 266° |
| 2026-04-30 11:40 | 52.40890 | -31.46232 | 37422 ft | 503 kts | 266° |
| 2026-04-30 11:41 | 52.40103 | -31.57615 | 37429 ft | 503 kts | 266° |
| 2026-04-30 11:41 | 52.39304 | -31.69006 | 37429 ft | 503 kts | 266° |
| 2026-04-30 11:42 | 52.38495 | -31.80386 | 37426 ft | 503 kts | 266° |
| 2026-04-30 11:42 | 52.37675 | -31.91765 | 37425 ft | 503 kts | 266° |
| 2026-04-30 11:43 | 52.36845 | -32.03131 | 37427 ft | 503 kts | 266° |
| 2026-04-30 11:43 | 52.36002 | -32.14498 | 37437 ft | 503 kts | 266° |
| 2026-04-30 11:44 | 52.35151 | -32.25852 | 37435 ft | 503 kts | 266° |
| 2026-04-30 11:44 | 52.34288 | -32.37201 | 37434 ft | 503 kts | 266° |
| 2026-04-30 11:45 | 52.33414 | -32.48555 | 37429 ft | 503 kts | 265° |
| 2026-04-30 11:45 | 52.32529 | -32.59908 | 37431 ft | 504 kts | 265° |
| 2026-04-30 11:46 | 52.31631 | -32.71272 | 37430 ft | 504 kts | 265° |
| 2026-04-30 11:46 | 52.30722 | -32.82633 | 37439 ft | 505 kts | 265° |
| 2026-04-30 11:47 | 52.29802 | -32.93999 | 37427 ft | 505 kts | 265° |
| 2026-04-30 11:47 | 52.29028 | -33.03456 | 37435 ft | 505 kts | 265° |
| 2026-04-30 11:48 | 52.28086 | -33.14832 | 37437 ft | 506 kts | 265° |
| 2026-04-30 11:48 | 52.26974 | -33.28080 | 37443 ft | 507 kts | 264° |
| 2026-04-30 11:49 | 52.26008 | -33.39458 | 37448 ft | 507 kts | 265° |
| 2026-04-30 11:49 | 52.25188 | -33.49006 | 37440 ft | 507 kts | 264° |
| 2026-04-30 11:50 | 52.24199 | -33.60399 | 37444 ft | 507 kts | 264° |
| 2026-04-30 11:50 | 52.23199 | -33.71793 | 37446 ft | 508 kts | 264° |
| 2026-04-30 11:51 | 52.22187 | -33.83184 | 37447 ft | 508 kts | 264° |